KINW

Details ICAO KINW (INW)
Name WINSLOW LINDBERGH RGNL
Region United States
Timezone America/Phoenix (UTC-7.0)
Plans Departing 3
Arriving 9
Stats Elevation 4,941 ft / 1,506 m (AMSL)
Location 35.021593° -110.724553°
Runways 3
Magnetic Variation 10.130° E
Sunrise 2017-12-13 14:23:52 UTC / 2017-12-13 07:23:52 Local
Sunset 2017-12-14 00:13:27 UTC / 2017-12-13 17:13:27 Local
Advertisement - Login to hide

Runways

ID Width Length Bearing (true) Bearing (mag) Surface Threshold Offset Overrun Length
04 150 ft / 46 m 7,491 ft / 2,283 m 58.49° 48.36° Asphalt 0 ft / 0 m 0 ft / 0 m
11 150 ft / 46 m 7,092 ft / 2,162 m 119.77° 109.64° Asphalt 190 ft / 58 m 398 ft / 121 m
17 150 ft / 46 m 6,102 ft / 1,860 m 184.66° 174.53° Asphalt 0 ft / 0 m 0 ft / 0 m
22 150 ft / 46 m 7,491 ft / 2,283 m 238.50° 228.37° Asphalt 1,258 ft / 383 m 0 ft / 0 m
29 150 ft / 46 m 7,092 ft / 2,162 m 299.78° 289.65° Asphalt 373 ft / 114 m 0 ft / 0 m
35 150 ft / 46 m 6,102 ft / 1,860 m 4.66° 354.53° Asphalt 0 ft / 0 m 0 ft / 0 m

Map

Weather


0- 5 10 15 20 25 30 35+ Temperature / ° C

Clouds and Precipitation
Forecast for 2017-12-13 18:00 UTC. Updated 2 hours ago

Ground ~20,000 ft ~40,000 ft Winds

METAR

KINW 131656Z AUTO 11006KT 10SM CLR M01/M19 A3027 RMK AO2 SLP276 T10111194

TAF

KINW 131125Z 1312/1412 VRB05KT P6SM SKC

Frequencies

Recorded 118.87 MHz ASOS
Unicom 122.80 MHz CTAF/UNICOM
Warning: Do not use this data for real-world aviation or navigation. No guarantee of current accuracy is given.